createdAt,value
2018-05-01T00:02:23.077Z,36.68
2018-05-01T00:04:49.710Z,36.70
2018-05-01T00:07:16.365Z,36.77
2018-05-01T00:09:43.010Z,36.74
2018-05-01T00:12:09.725Z,36.80
2018-05-01T00:14:36.447Z,36.70
2018-05-01T00:17:03.128Z,36.71
2018-05-01T00:19:29.809Z,36.75
2018-05-01T00:21:56.487Z,36.69
2018-05-01T00:24:23.131Z,36.76
2018-05-01T00:26:49.811Z,36.75
2018-05-01T00:29:16.442Z,36.78
2018-05-01T00:31:43.112Z,36.76
2018-05-01T00:34:11.782Z,36.74
2018-05-01T00:36:38.451Z,36.68
2018-05-01T00:39:05.633Z,36.74
2018-05-01T00:41:32.347Z,36.72
2018-05-01T00:43:58.944Z,36.81
2018-05-01T00:46:25.590Z,36.73
2018-05-01T00:48:52.321Z,36.73
2018-05-01T00:51:18.966Z,36.82
2018-05-01T00:53:45.641Z,36.72
2018-05-01T00:56:12.303Z,36.74
2018-05-01T00:58:38.967Z,36.76
2018-05-01T01:01:05.604Z,36.84
2018-05-01T01:03:32.209Z,36.78
2018-05-01T01:05:58.854Z,36.73
2018-05-01T01:08:25.530Z,36.72
2018-05-01T01:10:52.221Z,36.83
2018-05-01T01:13:18.889Z,36.88
2018-05-01T01:15:45.493Z,36.88
2018-05-01T01:18:12.149Z,36.91
2018-05-01T01:20:38.820Z,36.93
2018-05-01T01:23:05.498Z,36.92
2018-05-01T01:25:32.162Z,36.86
2018-05-01T01:27:58.804Z,36.96
2018-05-01T01:30:25.507Z,37.00
2018-05-01T01:32:52.152Z,36.96
2018-05-01T01:35:18.795Z,36.96
2018-05-01T01:37:45.467Z,37.11
2018-05-01T01:40:12.105Z,37.14
2018-05-01T01:42:38.746Z,37.14
2018-05-01T01:45:05.360Z,37.17
2018-05-01T01:47:32.068Z,37.24
2018-05-01T01:49:58.669Z,37.19
2018-05-01T01:52:25.430Z,37.24
2018-05-01T01:54:52.114Z,37.27
2018-05-01T01:57:18.750Z,37.24
2018-05-01T01:59:45.416Z,37.28
2018-05-01T02:02:12.080Z,37.37
2018-05-01T02:04:38.715Z,37.49
2018-05-01T02:07:05.353Z,37.43
2018-05-01T02:09:31.957Z,37.42
2018-05-01T02:11:58.594Z,37.43
2018-05-01T02:14:25.263Z,37.50
2018-05-01T02:16:51.878Z,37.47
2018-05-01T02:19:18.556Z,37.50
2018-05-01T02:21:45.153Z,37.49
2018-05-01T02:24:11.839Z,37.43
2018-05-01T02:26:38.437Z,37.55
2018-05-01T02:29:05.104Z,37.62
2018-05-01T02:31:31.716Z,37.62
2018-05-01T02:33:58.355Z,37.70
2018-05-01T02:36:25.098Z,37.60
2018-05-01T02:38:51.737Z,37.64
2018-05-01T02:41:18.426Z,37.69
2018-05-01T02:43:45.014Z,37.81
2018-05-01T02:46:11.651Z,37.78
2018-05-01T02:48:38.258Z,37.76
2018-05-01T02:51:04.894Z,37.82
2018-05-01T02:53:31.532Z,37.75
2018-05-01T02:55:58.167Z,37.79
2018-05-01T02:58:24.811Z,37.82
2018-05-01T03:00:51.437Z,37.72
2018-05-01T03:03:18.080Z,37.81
2018-05-01T03:05:44.746Z,37.89
2018-05-01T03:08:11.392Z,37.80
2018-05-01T03:10:37.987Z,37.70
2018-05-01T03:13:04.622Z,37.75
2018-05-01T03:15:31.296Z,37.85
2018-05-01T03:17:57.935Z,37.93
2018-05-01T03:20:24.569Z,37.83
2018-05-01T03:22:51.213Z,37.79
2018-05-01T03:25:17.909Z,37.96
2018-05-01T03:27:44.449Z,37.75
2018-05-01T03:30:11.096Z,37.72
2018-05-01T03:32:37.760Z,37.79
2018-05-01T03:35:04.399Z,37.84
2018-05-01T03:37:31.034Z,37.75
2018-05-01T03:39:57.630Z,37.80
2018-05-01T03:42:24.307Z,37.69
2018-05-01T03:44:50.909Z,37.66
2018-05-01T03:47:17.601Z,37.72
2018-05-01T03:49:44.271Z,37.81
2018-05-01T03:52:10.905Z,37.63
2018-05-01T03:54:37.517Z,37.38
2018-05-01T03:57:04.186Z,37.19
2018-05-01T03:59:30.821Z,37.22
2018-05-01T04:01:57.487Z,37.32
2018-05-01T04:04:24.082Z,37.29
2018-05-01T04:06:50.721Z,37.04
2018-05-01T04:09:17.394Z,37.08
2018-05-01T04:11:47.345Z,36.96
2018-05-01T04:14:14.013Z,36.99
2018-05-01T04:16:40.619Z,36.76
2018-05-01T04:19:07.262Z,36.68
2018-05-01T04:21:33.898Z,36.67
2018-05-01T04:24:00.534Z,36.66
2018-05-01T04:26:27.202Z,36.63
2018-05-01T04:28:53.879Z,36.89
2018-05-01T04:31:20.490Z,36.83
2018-05-01T04:33:47.119Z,36.90
2018-05-01T04:36:13.802Z,36.78
2018-05-01T04:38:40.440Z,36.70
2018-05-01T04:41:07.082Z,36.56
2018-05-01T04:43:33.707Z,36.59
2018-05-01T04:46:00.314Z,36.61
2018-05-01T04:48:26.953Z,36.57
2018-05-01T04:50:53.614Z,36.61
2018-05-01T04:53:20.257Z,36.58
2018-05-01T04:55:46.887Z,36.56
2018-05-01T04:58:13.526Z,36.47
2018-05-01T05:00:40.207Z,36.44
2018-05-01T05:03:06.836Z,36.45
2018-05-01T05:05:33.485Z,36.44
2018-05-01T05:08:00.107Z,36.32
2018-05-01T05:10:26.731Z,36.26
2018-05-01T05:12:53.398Z,36.22
2018-05-01T05:15:20.021Z,36.23
2018-05-01T05:17:46.659Z,36.15
2018-05-01T05:20:13.322Z,36.10
2018-05-01T05:22:39.930Z,36.11
2018-05-01T05:25:06.568Z,36.07
2018-05-01T05:27:33.256Z,35.99
2018-05-01T05:29:59.908Z,35.95
2018-05-01T05:32:26.548Z,36.12
2018-05-01T05:34:53.150Z,36.07
2018-05-01T05:37:19.818Z,36.23
2018-05-01T05:39:46.507Z,35.96
2018-05-01T05:42:13.143Z,35.69
2018-05-01T05:44:39.777Z,35.97
2018-05-01T05:47:06.416Z,35.84
2018-05-01T05:49:33.003Z,35.98
2018-05-01T05:51:59.641Z,36.13
2018-05-01T05:54:26.340Z,35.99
2018-05-01T05:56:52.967Z,35.91
2018-05-01T05:59:19.641Z,35.84
2018-05-01T06:01:46.282Z,35.95
2018-05-01T06:04:12.938Z,35.67
2018-05-01T06:06:39.569Z,35.78
2018-05-01T06:09:06.211Z,35.69
2018-05-01T06:11:32.878Z,35.65
2018-05-01T06:13:59.587Z,35.54
2018-05-01T06:16:26.192Z,35.28
2018-05-01T06:18:52.867Z,35.25
2018-05-01T06:21:19.474Z,35.37
2018-05-01T06:23:46.101Z,34.74
2018-05-01T06:26:12.778Z,34.55
2018-05-01T06:28:39.417Z,34.48
2018-05-01T06:31:06.169Z,34.30
2018-05-01T06:33:32.701Z,34.32
2018-05-01T06:35:59.345Z,34.42
2018-05-01T06:38:26.009Z,34.50
2018-05-01T06:40:52.648Z,34.01
2018-05-01T06:43:19.249Z,34.02
2018-05-01T06:45:45.933Z,33.94
2018-05-01T06:48:12.600Z,33.87
2018-05-01T06:50:39.202Z,33.79
2018-05-01T06:53:05.857Z,33.90
2018-05-01T06:55:32.494Z,33.95
2018-05-01T06:57:59.164Z,34.02
2018-05-01T07:00:25.802Z,33.83
2018-05-01T07:02:52.405Z,33.80
2018-05-01T07:05:19.042Z,33.86
2018-05-01T07:07:45.683Z,33.57
2018-05-01T07:10:12.381Z,33.71
2018-05-01T07:12:39.043Z,33.29
2018-05-01T07:15:05.693Z,33.25
2018-05-01T07:17:32.320Z,33.76
2018-05-01T07:19:58.959Z,33.33
2018-05-01T07:22:25.586Z,33.48
2018-05-01T07:24:52.263Z,33.12
2018-05-01T07:27:18.894Z,33.13
2018-05-01T07:29:45.573Z,33.20
2018-05-01T07:32:12.295Z,33.22
2018-05-01T07:34:38.929Z,33.18
2018-05-01T07:37:05.535Z,33.12
2018-05-01T07:39:32.201Z,33.00
2018-05-01T07:41:58.831Z,33.04
2018-05-01T07:44:25.531Z,32.85
2018-05-01T07:46:52.137Z,33.04
2018-05-01T07:49:18.788Z,32.65
2018-05-01T07:51:45.460Z,33.12
2018-05-01T07:54:12.097Z,32.66
2018-05-01T07:56:38.754Z,32.79
2018-05-01T07:59:05.438Z,32.64
2018-05-01T08:01:32.118Z,32.55
2018-05-01T08:03:58.725Z,32.74
2018-05-01T08:06:25.366Z,32.55
2018-05-01T08:08:52.032Z,32.87
2018-05-01T08:11:18.675Z,32.57
2018-05-01T08:13:45.357Z,32.78
2018-05-01T08:16:12.026Z,32.68
2018-05-01T08:18:38.678Z,32.62
2018-05-01T08:21:05.304Z,32.79
2018-05-01T08:23:31.902Z,32.75
2018-05-01T08:25:58.584Z,32.84
2018-05-01T08:28:25.256Z,32.60
2018-05-01T08:30:51.886Z,32.47
2018-05-01T08:33:18.543Z,32.60
2018-05-01T08:35:45.162Z,32.64
2018-05-01T08:38:11.875Z,32.68
2018-05-01T08:40:38.482Z,32.67
2018-05-01T08:43:05.119Z,32.83
2018-05-01T08:45:31.755Z,32.68
2018-05-01T08:47:58.399Z,32.99
2018-05-01T08:50:25.070Z,32.89
2018-05-01T08:52:51.674Z,32.88
2018-05-01T08:55:18.342Z,32.83
2018-05-01T08:57:44.986Z,32.90
2018-05-01T09:00:11.641Z,33.04
2018-05-01T09:02:38.311Z,32.97
2018-05-01T09:05:04.948Z,33.11
2018-05-01T09:07:31.581Z,32.95
2018-05-01T09:09:58.229Z,32.86
2018-05-01T09:12:24.867Z,32.77
2018-05-01T09:14:51.622Z,32.81
2018-05-01T09:17:18.180Z,32.56
2018-05-01T09:19:44.818Z,32.67
2018-05-01T09:22:11.536Z,32.69
2018-05-01T09:24:38.167Z,32.55
2018-05-01T09:27:04.808Z,32.59
2018-05-01T09:29:31.407Z,32.34
2018-05-01T09:31:58.084Z,32.42
2018-05-01T09:34:24.718Z,32.23
2018-05-01T09:36:51.358Z,32.33
2018-05-01T09:39:17.989Z,32.58
2018-05-01T09:41:44.654Z,33.48
2018-05-01T09:44:11.262Z,34.02
2018-05-01T09:46:37.932Z,33.83
2018-05-01T09:49:04.574Z,33.73
2018-05-01T09:51:31.210Z,34.03
2018-05-01T09:53:57.846Z,34.08
2018-05-01T09:56:24.486Z,33.96
2018-05-01T09:58:51.115Z,33.44
2018-05-01T10:01:17.765Z,33.94
2018-05-01T10:03:44.444Z,33.88
2018-05-01T10:06:11.093Z,33.91
2018-05-01T10:08:37.760Z,33.69
2018-05-01T10:11:04.412Z,33.68
2018-05-01T10:13:31.043Z,33.47
2018-05-01T10:15:57.715Z,33.38
2018-05-01T10:18:24.317Z,33.32
2018-05-01T10:20:50.987Z,33.04
2018-05-01T10:23:17.593Z,32.88
2018-05-01T10:25:44.251Z,32.72
2018-05-01T10:28:10.927Z,32.90
2018-05-01T10:30:37.560Z,32.53
2018-05-01T10:33:04.164Z,32.80
2018-05-01T10:35:30.798Z,32.41
2018-05-01T10:37:57.486Z,32.52
2018-05-01T10:40:24.121Z,32.26
2018-05-01T10:42:50.797Z,32.23
2018-05-01T10:45:17.453Z,32.14
2018-05-01T10:47:44.080Z,31.97
2018-05-01T10:50:10.724Z,32.12
2018-05-01T10:52:37.499Z,31.88
2018-05-01T10:55:04.138Z,31.88
2018-05-01T10:57:30.776Z,31.87
2018-05-01T10:59:57.412Z,31.74
2018-05-01T11:02:24.014Z,31.86
2018-05-01T11:04:50.694Z,31.79
2018-05-01T11:07:17.332Z,31.65
2018-05-01T11:09:43.971Z,31.69
2018-05-01T11:12:10.652Z,31.63
2018-05-01T11:14:37.254Z,31.67
2018-05-01T11:17:03.927Z,31.35
2018-05-01T11:19:30.558Z,31.48
2018-05-01T11:21:57.168Z,31.58
2018-05-01T11:24:23.834Z,31.51
2018-05-01T11:26:50.536Z,31.49
2018-05-01T11:29:17.172Z,31.41
2018-05-01T11:31:43.804Z,31.50
2018-05-01T11:34:10.443Z,31.36
2018-05-01T11:36:37.049Z,31.29
2018-05-01T11:39:03.719Z,31.25
2018-05-01T11:41:30.416Z,31.40
2018-05-01T11:43:57.058Z,31.37
2018-05-01T11:46:23.736Z,31.36
2018-05-01T11:48:50.369Z,31.39
2018-05-01T11:51:16.967Z,31.36
2018-05-01T11:53:43.671Z,31.27
2018-05-01T11:56:10.240Z,31.36
2018-05-01T11:58:39.319Z,31.24
2018-05-01T12:01:05.927Z,31.17
2018-05-01T12:03:32.567Z,31.28
2018-05-01T12:05:59.229Z,31.31
2018-05-01T12:08:25.872Z,31.35
2018-05-01T12:10:52.521Z,31.33
2018-05-01T12:13:19.146Z,31.19
2018-05-01T12:15:45.819Z,31.40
2018-05-01T12:18:12.460Z,31.21
2018-05-01T12:20:39.133Z,31.42
2018-05-01T12:23:05.828Z,31.32
2018-05-01T12:25:32.461Z,31.68
2018-05-01T12:27:59.095Z,31.48
2018-05-01T12:30:25.765Z,31.58
2018-05-01T12:32:52.432Z,31.65
2018-05-01T12:35:19.082Z,31.65
2018-05-01T12:37:45.748Z,31.64
2018-05-01T12:40:12.429Z,31.62
2018-05-01T12:42:39.107Z,31.68
2018-05-01T12:45:08.600Z,31.66
2018-05-01T12:47:35.240Z,31.70
2018-05-01T12:50:01.925Z,31.65
2018-05-01T12:52:28.571Z,31.66
2018-05-01T12:54:55.245Z,31.62
2018-05-01T12:57:21.845Z,31.61
2018-05-01T12:59:48.632Z,31.66
2018-05-01T13:02:15.274Z,31.62
2018-05-01T13:04:41.980Z,31.49
2018-05-01T13:07:08.605Z,31.83
2018-05-01T13:09:35.229Z,31.47
2018-05-01T13:12:01.867Z,31.72
2018-05-01T13:14:28.511Z,31.62
2018-05-01T13:16:55.151Z,31.70
2018-05-01T13:19:21.875Z,31.50
2018-05-01T13:21:48.465Z,31.64
2018-05-01T13:24:15.107Z,31.61
2018-05-01T13:26:44.443Z,31.48
2018-05-01T13:29:11.116Z,31.57
2018-05-01T13:31:37.714Z,31.58
2018-05-01T13:34:04.396Z,31.56
2018-05-01T13:36:31.063Z,31.40
2018-05-01T13:38:57.729Z,31.53
2018-05-01T13:41:24.328Z,31.34
2018-05-01T13:43:51.008Z,31.64
2018-05-01T13:46:17.604Z,31.43
2018-05-01T13:48:44.276Z,31.52
2018-05-01T13:51:10.959Z,31.50
2018-05-01T13:53:37.553Z,31.56
2018-05-01T13:56:04.228Z,31.64
2018-05-01T13:58:30.834Z,31.47
2018-05-01T14:00:57.495Z,31.73
2018-05-01T14:03:24.110Z,31.61
2018-05-01T14:05:50.767Z,31.72
2018-05-01T14:08:17.438Z,31.69
2018-05-01T14:10:44.090Z,31.71
2018-05-01T14:13:10.828Z,31.79
2018-05-01T14:15:37.453Z,31.80
2018-05-01T14:18:04.069Z,31.92
2018-05-01T14:20:30.739Z,31.69
2018-05-01T14:22:57.344Z,31.80
2018-05-01T14:25:23.976Z,31.65
2018-05-01T14:27:50.644Z,31.67
2018-05-01T14:30:17.281Z,31.63
2018-05-01T14:32:43.953Z,31.52
2018-05-01T14:35:10.560Z,31.57
2018-05-01T14:37:37.198Z,31.34
2018-05-01T14:40:03.877Z,31.42
2018-05-01T14:42:30.548Z,31.30
2018-05-01T14:44:57.187Z,31.33
2018-05-01T14:47:23.817Z,31.53
2018-05-01T14:49:50.498Z,31.32
2018-05-01T14:52:17.128Z,31.24
2018-05-01T14:54:43.796Z,31.35
2018-05-01T14:57:10.416Z,31.20
2018-05-01T14:59:37.081Z,31.41
2018-05-01T15:02:03.724Z,31.33
2018-05-01T15:04:30.357Z,31.17
2018-05-01T15:06:57.028Z,31.17
2018-05-01T15:09:23.621Z,31.24
2018-05-01T15:11:50.260Z,31.43
2018-05-01T15:14:16.931Z,31.22
2018-05-01T15:16:43.586Z,31.42
2018-05-01T15:19:10.234Z,31.22
2018-05-01T15:21:36.873Z,31.49
2018-05-01T15:24:03.543Z,31.21
2018-05-01T15:26:30.223Z,31.55
2018-05-01T15:28:56.861Z,31.49
2018-05-01T15:31:23.532Z,31.66
2018-05-01T15:33:50.199Z,31.60
2018-05-01T15:36:16.880Z,31.60
2018-05-01T15:38:44.892Z,31.72
2018-05-01T15:41:10.147Z,31.71
2018-05-01T15:43:36.826Z,31.94
2018-05-01T15:46:03.489Z,32.06
2018-05-01T15:48:32.652Z,32.09
2018-05-01T15:50:59.339Z,32.41
2018-05-01T15:53:25.984Z,32.50
2018-05-01T15:55:52.615Z,32.78
2018-05-01T15:58:19.340Z,32.90
2018-05-01T16:00:47.756Z,32.95
2018-05-01T16:03:14.331Z,33.36
2018-05-01T16:05:41.002Z,33.26
2018-05-01T16:08:07.669Z,33.82
2018-05-01T16:10:34.305Z,33.50
2018-05-01T16:13:01.007Z,34.02
2018-05-01T16:15:27.581Z,33.89
2018-05-01T16:17:54.214Z,34.38
2018-05-01T16:20:20.890Z,34.11
2018-05-01T16:22:47.493Z,34.15
2018-05-01T16:25:14.170Z,34.35
2018-05-01T16:27:40.804Z,34.21
2018-05-01T16:30:07.442Z,34.63
2018-05-01T16:32:34.112Z,34.34
2018-05-01T16:35:00.738Z,35.36
2018-05-01T16:37:27.444Z,35.81
2018-05-01T16:39:54.042Z,35.86
2018-05-01T16:42:20.770Z,35.67
2018-05-01T16:44:47.394Z,35.72
2018-05-01T16:47:14.120Z,36.36
2018-05-01T16:49:40.750Z,36.36
2018-05-01T16:52:07.398Z,36.54
2018-05-01T16:54:34.073Z,36.45
2018-05-01T16:57:00.755Z,36.46
2018-05-01T16:59:27.495Z,36.34
2018-05-01T17:01:54.190Z,36.26
2018-05-01T17:04:20.870Z,35.99
2018-05-01T17:06:47.448Z,36.58
2018-05-01T17:09:14.096Z,37.49
2018-05-01T17:11:40.725Z,36.94
2018-05-01T17:14:07.404Z,36.76
2018-05-01T17:16:34.007Z,36.63
2018-05-01T17:19:00.642Z,36.76
2018-05-01T17:21:27.402Z,36.88
2018-05-01T17:23:54.037Z,36.64
2018-05-01T17:26:20.700Z,36.57
2018-05-01T17:28:47.306Z,36.66
2018-05-01T17:31:13.992Z,36.50
2018-05-01T17:33:40.633Z,37.12
2018-05-01T17:36:07.276Z,37.60
2018-05-01T17:38:33.929Z,37.03
2018-05-01T17:41:00.614Z,37.26
2018-05-01T17:43:27.311Z,36.69
2018-05-01T17:45:53.921Z,36.72
2018-05-01T17:48:20.558Z,36.98
2018-05-01T17:50:47.192Z,36.90
2018-05-01T17:53:13.885Z,36.69
2018-05-01T17:55:40.517Z,36.66
2018-05-01T17:58:07.221Z,36.61
2018-05-01T18:00:33.827Z,36.65
2018-05-01T18:03:00.514Z,36.78
2018-05-01T18:05:27.193Z,36.88
2018-05-01T18:07:53.869Z,36.40
2018-05-01T18:10:20.505Z,36.69
2018-05-01T18:12:47.174Z,37.63
2018-05-01T18:15:13.846Z,37.41
2018-05-01T18:17:40.516Z,37.57
2018-05-01T18:20:07.150Z,37.04
2018-05-01T18:22:33.758Z,37.07
2018-05-01T18:25:00.397Z,37.32
2018-05-01T18:27:27.065Z,37.16
2018-05-01T18:29:53.732Z,37.05
2018-05-01T18:32:20.377Z,36.98
2018-05-01T18:34:47.040Z,36.95
2018-05-01T18:37:13.695Z,37.02
2018-05-01T18:39:40.355Z,37.03
2018-05-01T18:42:06.994Z,36.77
2018-05-01T18:44:33.603Z,37.00
2018-05-01T18:47:00.315Z,37.10
2018-05-01T18:49:26.917Z,37.12
2018-05-01T18:51:53.641Z,37.05
2018-05-01T18:54:20.273Z,37.02
2018-05-01T18:56:46.952Z,36.96
2018-05-01T18:59:13.551Z,36.99
2018-05-01T19:01:40.221Z,36.89
2018-05-01T19:04:06.857Z,36.88
2018-05-01T19:06:33.516Z,37.19
2018-05-01T19:09:00.125Z,37.10
2018-05-01T19:11:26.758Z,37.01
2018-05-01T19:13:53.458Z,36.96
2018-05-01T19:16:20.091Z,37.00
2018-05-01T19:18:46.851Z,37.00
2018-05-01T19:21:13.489Z,37.03
2018-05-01T19:23:40.264Z,36.99
2018-05-01T19:26:06.968Z,36.96
2018-05-01T19:28:34.916Z,36.97
2018-05-01T19:31:00.316Z,37.20
2018-05-01T19:33:26.925Z,37.24
2018-05-01T19:35:53.676Z,37.13
2018-05-01T19:38:20.319Z,37.09
2018-05-01T19:40:46.908Z,37.07
2018-05-01T19:43:13.584Z,37.00
2018-05-01T19:45:40.230Z,37.00
2018-05-01T19:48:06.886Z,37.00
2018-05-01T19:50:33.531Z,37.00
2018-05-01T19:53:00.187Z,36.99
2018-05-01T19:55:26.827Z,37.10
2018-05-01T19:57:53.491Z,37.12
2018-05-01T20:00:20.126Z,37.00
2018-05-01T20:02:46.793Z,37.02
2018-05-01T20:05:13.440Z,36.93
2018-05-01T20:07:40.100Z,36.97
2018-05-01T20:10:06.762Z,36.95
2018-05-01T20:12:33.475Z,36.88
2018-05-01T20:15:00.067Z,36.94
2018-05-01T20:17:26.712Z,36.85
2018-05-01T20:19:53.444Z,36.96
2018-05-01T20:22:20.077Z,36.90
2018-05-01T20:24:46.710Z,36.92
2018-05-01T20:27:13.318Z,36.92
2018-05-01T20:29:41.371Z,36.89
2018-05-01T20:32:06.638Z,37.03
2018-05-01T20:34:33.310Z,37.12
2018-05-01T20:36:59.981Z,36.99
2018-05-01T20:39:26.658Z,37.02
2018-05-01T20:41:53.297Z,37.03
2018-05-01T20:44:20.018Z,37.03
2018-05-01T20:46:46.607Z,37.03
2018-05-01T20:49:13.286Z,36.96
2018-05-01T20:51:39.915Z,36.89
2018-05-01T20:54:06.551Z,36.96
2018-05-01T20:56:33.182Z,36.94
2018-05-01T20:58:59.861Z,36.98
2018-05-01T21:01:26.522Z,37.01
2018-05-01T21:03:54.264Z,36.97
2018-05-01T21:06:20.939Z,37.00
2018-05-01T21:08:47.610Z,37.00
2018-05-01T21:11:14.275Z,37.17
2018-05-01T21:13:40.932Z,37.07
2018-05-01T21:16:07.568Z,37.07
2018-05-01T21:18:34.187Z,36.99
2018-05-01T21:21:00.867Z,36.94
2018-05-01T21:23:27.498Z,36.97
2018-05-01T21:25:54.134Z,36.88
2018-05-01T21:28:20.809Z,36.93
2018-05-01T21:30:47.438Z,36.82
2018-05-01T21:33:14.193Z,36.87
2018-05-01T21:35:40.835Z,36.80
2018-05-01T21:38:07.497Z,36.88
2018-05-01T21:40:34.196Z,36.82
2018-05-01T21:43:00.966Z,36.74
2018-05-01T21:45:27.513Z,36.73
2018-05-01T21:47:54.150Z,36.74
2018-05-01T21:50:20.867Z,36.79
2018-05-01T21:52:47.464Z,36.68
2018-05-01T21:55:14.098Z,36.73
2018-05-01T21:57:40.738Z,36.66
2018-05-01T22:00:07.447Z,36.71
2018-05-01T22:02:34.043Z,36.68
2018-05-01T22:05:00.701Z,36.63
2018-05-01T22:07:27.391Z,36.75
2018-05-01T22:09:54.186Z,36.76
2018-05-01T22:12:20.821Z,36.73
2018-05-01T22:14:47.491Z,36.72
2018-05-01T22:17:14.086Z,36.79
2018-05-01T22:19:40.755Z,36.80
2018-05-01T22:22:07.425Z,36.79
2018-05-01T22:24:34.091Z,36.84
2018-05-01T22:27:00.704Z,36.93
2018-05-01T22:29:27.376Z,36.92
2018-05-01T22:31:54.040Z,36.92
2018-05-01T22:34:20.732Z,36.96
2018-05-01T22:36:47.380Z,36.95
2018-05-01T22:39:13.992Z,36.97
2018-05-01T22:41:40.653Z,36.98
2018-05-01T22:44:07.318Z,36.93
2018-05-01T22:46:33.971Z,36.94
2018-05-01T22:49:00.603Z,36.96
2018-05-01T22:51:27.232Z,36.95
2018-05-01T22:53:53.943Z,36.95
2018-05-01T22:56:20.553Z,36.85
2018-05-01T22:58:47.226Z,36.92
2018-05-01T23:01:13.853Z,36.97
2018-05-01T23:03:40.522Z,36.92
2018-05-01T23:06:07.131Z,36.91
2018-05-01T23:08:33.840Z,36.93
2018-05-01T23:11:00.470Z,36.92
2018-05-01T23:13:27.107Z,36.86
2018-05-01T23:15:53.708Z,36.90
2018-05-01T23:18:20.378Z,36.94
2018-05-01T23:20:47.027Z,36.93
2018-05-01T23:23:15.057Z,36.75
2018-05-01T23:25:40.373Z,36.93
2018-05-01T23:28:06.975Z,36.95
2018-05-01T23:30:33.601Z,36.84
2018-05-01T23:33:00.277Z,36.85
2018-05-01T23:35:26.872Z,36.82
2018-05-01T23:37:53.543Z,36.93
2018-05-01T23:40:20.146Z,36.92
2018-05-01T23:42:46.772Z,36.92
2018-05-01T23:45:13.431Z,36.84
2018-05-01T23:47:40.055Z,36.93
2018-05-01T23:50:06.731Z,36.86
2018-05-01T23:52:33.336Z,36.94
2018-05-01T23:55:00.006Z,36.96
2018-05-01T23:57:26.643Z,36.92
2018-05-01T23:59:53.266Z,36.86
